EFLP

Details ICAO EFLP (LPP)
Name Lappeenranta
Region Finland
Timezone Europe/Helsinki (UTC+3.0)
Plans Departing 37
Arriving 29
Stats Elevation 349 ft / 106 m (AMSL)
Location 61.044550° 28.144400°
Runways 1
Magnetic Variation 10.477° E
Sunrise 2018-05-24 01:02:38 UTC / 2018-05-24 04:02:38 Local
Sunset 2018-05-24 19:08:44 UTC / 2018-05-24 22:08:44 Local
Advertisement - Login to hide

Runways

ID Width Length Bearing (true) Bearing (mag) Surface Threshold Offset Overrun Length
06 197 ft / 60 m 8,177 ft / 2,492 m 66.69° 56.21° Asphalt 0 ft / 0 m 210 ft / 64 m
24 197 ft / 60 m 8,177 ft / 2,492 m 246.72° 236.24° Asphalt 0 ft / 0 m 200 ft / 61 m

Approach Navaids

Runway Type Ident Frequency Range Bearing (true) Bearing (mag) Slope Elevation
06 Localiser LP 109.90 MHz 18 nm / 33 km 66.72° 56.25° - 349 ft / 106 m (AMSL)
06 Glidescope LP 109.90 MHz 10 nm / 19 km 66.70° 56.23° 3.00° 349 ft / 106 m (AMSL)

Map

Weather


0- 5 10 15 20 25 30 35+ Temperature / ° C

Clouds and Precipitation
Forecast for 2018-05-24 18:00 UTC. Updated 4 hours ago

Ground ~20,000 ft ~40,000 ft Winds

METAR

EFLP 242120Z AUTO VRB01KT CAVOK 09/03 Q1029

TAF

Not found

Frequencies

Tower 120.20 MHz TWR
Tower 119.70 MHz TWR
Warning: Do not use this data for real-world aviation or navigation. No guarantee of current accuracy is given.